Time;durP1;ratioP1;P1;durP2;ratioP2;P2;SDS_P1;SDS_P2;PMS_P1;PMS_P2;Temp;Humidity;BMP_temperature;BMP_pressure;BME280_temperature;BME280_humidity;BME280_pressure;Samples;Min_cycle;Max_cycle;Signal;HPM_P1;HPM_P2
2021/09/16 00:00:54;;;;;;;0.60;0.30;;;;;;;19.29;59.22;102234.34;5016242;28;20026;-66
2021/09/16 00:03:20;;;;;;;0.47;0.20;;;;;;;19.33;59.70;102240.41;5016699;28;20473;-65
2021/09/16 00:05:45;;;;;;;0.82;0.40;;;;;;;19.28;57.63;102232.63;5016331;28;20030;-66
2021/09/16 00:08:11;;;;;;;0.40;0.25;;;;;;;19.37;59.14;102237.25;5016438;28;20021;-66
2021/09/16 00:10:36;;;;;;;0.95;0.30;;;;;;;19.40;57.37;102231.50;5016552;28;20381;-66
2021/09/16 00:13:01;;;;;;;0.90;0.20;;;;;;;19.36;57.43;102231.94;5016427;28;20022;-66
2021/09/16 00:15:33;;;;;;;1.10;0.40;;;;;;;19.32;61.77;102230.50;5016756;28;20026;-65
2021/09/16 00:17:59;;;;;;;0.35;0.30;;;;;;;19.23;59.15;102235.81;5016296;28;20499;-66
2021/09/16 00:20:24;;;;;;;0.85;0.30;;;;;;;19.29;58.71;102228.91;5016340;28;20034;-66
2021/09/16 00:22:49;;;;;;;0.30;0.20;;;;;;;19.30;56.82;102225.16;5015992;28;20073;-67
2021/09/16 00:25:15;;;;;;;0.38;0.20;;;;;;;19.30;58.54;102230.63;5016213;28;20017;-66
2021/09/16 00:27:40;;;;;;;0.43;0.30;;;;;;;19.25;57.78;102232.94;5016104;28;20030;-66
2021/09/16 00:30:07;;;;;;;0.88;0.30;;;;;;;19.26;58.76;102222.88;5015787;28;20092;-66
2021/09/16 00:32:32;;;;;;;0.57;0.30;;;;;;;19.27;60.15;102222.75;5016255;28;20037;-66
2021/09/16 00:34:57;;;;;;;0.63;0.32;;;;;;;19.22;59.90;102227.78;5029158;28;20045;-66
2021/09/16 00:37:23;;;;;;;0.70;0.20;;;;;;;19.26;58.74;102223.75;5035781;28;20372;-65
2021/09/16 00:39:48;;;;;;;0.30;0.10;;;;;;;19.28;59.45;102221.72;5035696;28;20044;-66
2021/09/16 00:42:15;;;;;;;1.20;0.30;;;;;;;19.23;56.99;102216.72;5035352;28;20056;-65
2021/09/16 00:44:41;;;;;;;0.38;0.22;;;;;;;19.19;60.07;102222.63;5035759;28;20021;-66
2021/09/16 00:47:06;;;;;;;0.70;0.30;;;;;;;19.26;57.99;102223.75;5035756;28;20021;-66
2021/09/16 00:49:31;;;;;;;0.22;0.22;;;;;;;19.27;58.07;102216.41;5035497;28;20033;-66
2021/09/16 00:51:57;;;;;;;0.43;0.30;;;;;;;19.23;58.77;102214.00;5035355;28;20022;-66
2021/09/16 00:54:24;;;;;;;0.77;0.30;;;;;;;19.24;58.11;102215.72;5035459;28;20029;-66
2021/09/16 00:56:51;;;;;;;0.63;0.30;;;;;;;19.21;60.02;102215.16;5017578;28;20104;-66
2021/09/16 00:59:20;;;;;;;1.88;0.20;;;;;;;19.22;59.34;102217.72;5035506;28;20064;-66
2021/09/16 01:01:46;;;;;;;0.20;0.17;;;;;;;19.22;59.82;102216.88;5034693;28;20021;-66
2021/09/16 01:04:11;;;;;;;0.50;0.30;;;;;;;19.20;59.80;102213.44;5035657;28;20087;-65
2021/09/16 01:06:36;;;;;;;0.63;0.22;;;;;;;19.34;57.46;102221.16;5035406;28;20032;-66
2021/09/16 01:09:02;;;;;;;0.20;0.20;;;;;;;19.19;58.85;102218.03;5035171;28;20018;-66
2021/09/16 01:11:28;;;;;;;0.85;0.30;;;;;;;19.16;57.85;102209.28;5035294;28;20037;-66
2021/09/16 01:13:56;;;;;;;0.20;0.20;;;;;;;19.18;60.50;102215.44;5011474;28;20057;-66
2021/09/16 01:16:22;;;;;;;0.85;0.20;;;;;;;19.22;58.47;102211.41;5015363;28;20102;-66
2021/09/16 01:18:47;;;;;;;0.10;0.10;;;;;;;19.18;58.73;102218.16;5015017;28;20064;-66
2021/09/16 01:21:12;;;;;;;0.40;0.40;;;;;;;19.16;57.44;102223.75;5015251;28;20064;-66
2021/09/16 01:23:38;;;;;;;0.22;0.20;;;;;;;19.21;58.53;102217.88;5021803;28;20033;-66
2021/09/16 01:26:03;;;;;;;0.32;0.20;;;;;;;19.15;59.11;102215.72;5016871;28;20067;-66
2021/09/16 01:28:28;;;;;;;0.70;0.35;;;;;;;19.15;58.99;102215.72;5034742;28;20108;-66
2021/09/16 01:30:54;;;;;;;1.13;0.90;;;;;;;19.10;60.37;102212.56;5035019;28;20022;-66
2021/09/16 01:33:19;;;;;;;0.30;0.28;;;;;;;19.11;57.94;102203.38;5034622;28;20044;-66
2021/09/16 01:35:44;;;;;;;0.30;0.22;;;;;;;19.19;58.85;102217.16;5034700;28;20387;-66
2021/09/16 01:38:10;;;;;;;0.98;0.20;;;;;;;19.14;60.37;102201.22;5034490;28;20460;-66
2021/09/16 01:40:35;;;;;;;0.25;0.20;;;;;;;19.17;59.32;102191.91;5035025;28;20033;-66
2021/09/16 01:43:01;;;;;;;0.30;0.20;;;;;;;19.14;59.67;102197.63;5034146;28;20468;-66
2021/09/16 01:45:27;;;;;;;0.20;0.20;;;;;;;19.12;59.45;102184.13;5034394;28;20033;-66
2021/09/16 01:47:53;;;;;;;0.30;0.20;;;;;;;19.13;59.70;102180.41;5034157;28;20546;-66
2021/09/16 01:50:21;;;;;;;0.30;0.20;;;;;;;19.14;60.68;102181.25;5035167;28;20033;-66
2021/09/16 01:52:47;;;;;;;0.25;0.25;;;;;;;19.09;60.38;102178.97;5034385;28;20025;-66
2021/09/16 01:55:14;;;;;;;0.88;0.40;;;;;;;19.12;58.54;102183.28;5033951;28;20028;-66
2021/09/16 01:57:40;;;;;;;0.80;0.10;;;;;;;19.19;58.57;102174.41;5034408;28;20025;-66
2021/09/16 02:00:07;;;;;;;0.20;0.20;;;;;;;19.20;58.63;102165.22;5034348;28;20025;-66
2021/09/16 02:02:32;;;;;;;0.90;0.25;;;;;;;19.09;59.11;102167.22;5034113;28;20354;-66
2021/09/16 02:04:58;;;;;;;1.23;0.30;;;;;;;19.15;58.80;102166.66;5033783;28;20090;-66
2021/09/16 02:07:23;;;;;;;0.63;0.30;;;;;;;19.05;60.73;102160.34;5017760;28;20037;-66
2021/09/16 02:09:49;;;;;;;0.63;0.40;;;;;;;18.99;61.67;102160.94;5014593;28;20436;-66
2021/09/16 02:12:15;;;;;;;0.30;0.30;;;;;;;19.07;59.07;102152.88;5013390;28;20105;-66
2021/09/16 02:14:40;;;;;;;1.33;0.30;;;;;;;19.07;59.45;102148.28;5014310;28;20079;-66
2021/09/16 02:17:06;;;;;;;0.68;0.30;;;;;;;19.05;58.76;102149.44;5014094;28;20557;-66
2021/09/16 02:19:31;;;;;;;0.90;0.32;;;;;;;19.08;59.68;102149.16;5014760;28;20421;-67
2021/09/16 02:21:56;;;;;;;0.52;0.10;;;;;;;19.01;58.64;102148.00;5013904;28;20053;-66
2021/09/16 02:24:23;;;;;;;0.35;0.10;;;;;;;19.09;59.21;102149.00;5026959;28;20029;-65
2021/09/16 02:26:48;;;;;;;0.57;0.30;;;;;;;19.13;59.84;102142.25;5033891;28;20112;-66
2021/09/16 02:29:13;;;;;;;0.52;0.20;;;;;;;19.11;60.01;102143.41;5033408;28;20525;-66
2021/09/16 02:31:39;;;;;;;0.68;0.28;;;;;;;19.05;59.20;102139.41;5033918;28;20451;-66
2021/09/16 02:34:04;;;;;;;0.55;0.30;;;;;;;19.06;58.38;102134.81;5033429;28;20045;-66
2021/09/16 02:36:30;;;;;;;0.50;0.30;;;;;;;19.03;60.32;102132.38;5033684;28;20025;-66
2021/09/16 02:38:55;;;;;;;0.63;0.25;;;;;;;19.05;58.76;102128.50;5033538;28;20383;-66
2021/09/16 02:41:21;;;;;;;2.03;0.32;;;;;;;19.03;60.01;102132.38;5033572;28;20018;-67
2021/09/16 02:43:47;;;;;;;1.27;0.40;;;;;;;18.98;59.85;102126.47;5015958;28;20036;-66
2021/09/16 02:46:12;;;;;;;0.88;0.30;;;;;;;19.01;59.38;102135.25;5033259;28;20484;-66
2021/09/16 02:48:38;;;;;;;0.30;0.20;;;;;;;19.07;59.26;102129.19;5033335;28;20100;-66
2021/09/16 02:51:03;;;;;;;0.20;0.10;;;;;;;19.01;60.40;102120.75;5033301;28;20026;-66
2021/09/16 02:53:29;;;;;;;0.70;0.25;;;;;;;18.98;60.57;102126.47;5033373;28;20025;-66
2021/09/16 02:55:54;;;;;;;0.63;0.20;;;;;;;18.99;59.63;102139.97;5033983;28;20026;-66
2021/09/16 02:58:19;;;;;;;0.30;0.28;;;;;;;19.04;60.35;102145.84;5033320;28;20144;-66
2021/09/16 03:00:45;;;;;;;0.63;0.22;;;;;;;19.04;59.49;102143.13;5015668;28;20475;-66
2021/09/16 03:03:10;;;;;;;1.55;0.20;;;;;;;19.08;59.46;102143.69;5033042;28;20029;-66
2021/09/16 03:05:36;;;;;;;0.28;0.28;;;;;;;19.12;58.52;102145.13;5033254;28;20372;-66
2021/09/16 03:08:01;;;;;;;0.30;0.30;;;;;;;19.04;59.67;102145.00;5033095;28;20026;-66
2021/09/16 03:10:26;;;;;;;1.17;0.35;;;;;;;19.08;60.94;102140.97;5033123;28;20441;-66
2021/09/16 03:12:52;;;;;;;0.70;0.20;;;;;;;19.11;59.67;102130.63;5033066;28;20025;-66
2021/09/16 03:15:18;;;;;;;0.45;0.25;;;;;;;19.02;60.16;102134.25;5032938;28;20022;-66
2021/09/16 03:17:43;;;;;;;0.30;0.20;;;;;;;19.00;59.26;102135.41;5033044;28;20021;-66
2021/09/16 03:20:09;;;;;;;0.30;0.25;;;;;;;19.12;58.46;102134.22;5033140;28;20026;-67
2021/09/16 03:22:35;;;;;;;0.38;0.32;;;;;;;18.98;59.94;102138.25;5032592;28;20040;-66
2021/09/16 03:25:04;;;;;;;0.32;0.10;;;;;;;19.12;59.23;102131.47;5036499;28;20033;-66
2021/09/16 03:27:30;;;;;;;0.20;0.20;;;;;;;19.04;60.71;102131.38;5037274;28;20061;-66
2021/09/16 03:29:55;;;;;;;0.15;0.15;;;;;;;18.99;58.93;102118.19;5036743;28;20380;-66
2021/09/16 03:32:21;;;;;;;0.22;0.20;;;;;;;18.99;59.28;102079.16;5037149;28;20428;-66
2021/09/16 03:34:46;;;;;;;0.30;0.30;;;;;;;18.99;59.25;102081.88;5025366;28;20060;-65
2021/09/16 03:37:11;;;;;;;0.25;0.13;;;;;;;18.97;60.71;102072.97;5017084;28;20072;-66
2021/09/16 03:39:36;;;;;;;0.95;0.30;;;;;;;18.99;59.40;102079.16;5017031;28;20685;-66
2021/09/16 03:42:03;;;;;;;0.45;0.20;;;;;;;19.03;59.63;102080.59;5016974;28;20061;-67
2021/09/16 03:44:29;;;;;;;0.52;0.20;;;;;;;19.02;60.14;102074.28;5016729;28;20040;-65
2021/09/16 03:46:55;;;;;;;0.50;0.10;;;;;;;18.98;61.18;102071.97;4999290;28;20113;-66
2021/09/16 03:49:20;;;;;;;0.57;0.10;;;;;;;18.92;60.18;102068.81;5016880;28;20393;-66
2021/09/16 03:51:45;;;;;;;0.30;0.28;;;;;;;18.99;60.97;102068.25;5016945;28;20026;-66
2021/09/16 03:54:11;;;;;;;1.15;0.30;;;;;;;18.99;59.66;102068.25;5016834;28;20030;-66
2021/09/16 03:56:37;;;;;;;0.20;0.15;;;;;;;18.89;60.90;102063.69;5016881;28;20017;-66
2021/09/16 03:59:02;;;;;;;1.27;0.10;;;;;;;18.99;61.47;102068.25;5016581;28;20381;-66
2021/09/16 04:01:28;;;;;;;1.38;0.20;;;;;;;19.06;60.12;102062.06;5016916;28;20031;-66
2021/09/16 04:03:53;;;;;;;0.20;0.13;;;;;;;19.39;59.00;102049.78;5016749;28;20053;-66
2021/09/16 04:06:18;;;;;;;0.10;0.10;;;;;;;19.66;58.27;102046.25;5016556;28;20026;-66
2021/09/16 04:08:43;;;;;;;0.55;0.25;;;;;;;19.82;58.11;102029.22;5015416;28;20416;-66
2021/09/16 04:11:09;;;;;;;0.60;0.20;;;;;;;19.91;57.51;102031.03;5016431;28;20026;-66
2021/09/16 04:13:34;;;;;;;0.17;0.13;;;;;;;20.01;57.25;102031.84;5017465;28;20033;-65
2021/09/16 04:15:59;;;;;;;0.40;0.05;;;;;;;20.06;57.50;102029.50;5016035;28;20440;-66
2021/09/16 04:18:25;;;;;;;0.43;0.20;;;;;;;20.10;57.93;102027.31;5016406;28;20037;-66
2021/09/16 04:20:50;;;;;;;0.80;0.20;;;;;;;20.20;56.78;102022.66;5016386;28;20034;-66
2021/09/16 04:23:16;;;;;;;0.40;0.22;;;;;;;20.32;56.87;102025.97;5020469;28;20071;-65
2021/09/16 04:25:41;;;;;;;0.47;0.10;;;;;;;20.23;56.53;102027.78;5036020;28;20550;-66
2021/09/16 04:28:06;;;;;;;1.25;0.32;;;;;;;20.36;57.19;102038.34;5036073;28;20021;-65
2021/09/16 04:30:31;;;;;;;0.20;0.13;;;;;;;20.27;58.08;102033.78;5035883;28;20071;-66
2021/09/16 04:32:57;;;;;;;0.40;0.20;;;;;;;20.35;58.14;102036.63;5035814;28;20029;-66
2021/09/16 04:35:22;;;;;;;0.45;0.20;;;;;;;20.36;59.49;102043.81;5034870;28;20527;-65
2021/09/16 04:37:47;;;;;;;0.80;0.20;;;;;;;20.39;56.91;102043.47;5036029;28;20026;-66
2021/09/16 04:40:13;;;;;;;1.23;0.30;;;;;;;20.40;57.92;102045.19;5035323;28;20026;-66
2021/09/16 04:42:39;;;;;;;0.95;0.10;;;;;;;20.36;56.53;102046.53;5035456;28;20068;-66
2021/09/16 04:45:07;;;;;;;0.57;0.32;;;;;;;20.38;57.97;102042.63;5035605;28;20380;-66
2021/09/16 04:47:32;;;;;;;0.30;0.20;;;;;;;20.40;58.34;102035.13;5035787;28;20025;-66
2021/09/16 04:49:57;;;;;;;0.55;0.20;;;;;;;20.47;58.52;102035.38;5035452;28;20502;-66
2021/09/16 04:52:25;;;;;;;0.60;0.20;;;;;;;20.52;57.86;102041.25;5035513;28;20368;-66
2021/09/16 04:54:50;;;;;;;0.93;0.25;;;;;;;20.50;56.20;102040.56;5035669;28;20026;-66
2021/09/16 04:57:15;;;;;;;0.10;0.10;;;;;;;20.54;58.03;102043.81;5035484;28;20036;-65
2021/09/16 04:59:41;;;;;;;0.25;0.20;;;;;;;20.63;57.48;102041.00;5035383;28;20361;-66
2021/09/16 05:02:06;;;;;;;0.30;0.10;;;;;;;20.56;57.48;102042.66;5035155;28;20049;-66
2021/09/16 05:04:31;;;;;;;0.40;0.20;;;;;;;20.60;58.53;102038.56;5035359;28;20061;-66
2021/09/16 05:06:57;;;;;;;0.30;0.20;;;;;;;20.61;58.20;102032.09;5035023;28;20056;-66
2021/09/16 05:09:22;;;;;;;1.73;0.13;;;;;;;20.64;57.10;102031.78;5035372;28;20353;-66
2021/09/16 05:11:48;;;;;;;0.20;0.20;;;;;;;20.64;57.67;102031.78;5035222;28;20021;-66
2021/09/16 05:14:14;;;;;;;0.68;0.30;;;;;;;20.60;58.67;102035.84;5035074;28;20445;-66
2021/09/16 05:16:39;;;;;;;0.32;0.20;;;;;;;20.67;58.08;102030.63;5035205;28;20032;-66
2021/09/16 05:19:05;;;;;;;0.38;0.38;;;;;;;20.70;58.56;102028.44;5035145;28;20072;-66
2021/09/16 05:21:30;;;;;;;0.40;0.20;;;;;;;20.69;59.57;102023.97;5035062;28;20060;-66
2021/09/16 05:23:56;;;;;;;1.27;0.50;;;;;;;20.69;58.48;102023.97;5035033;28;20060;-65
2021/09/16 05:26:21;;;;;;;1.08;0.20;;;;;;;20.69;59.92;102029.44;5035173;28;20523;-65
2021/09/16 05:28:47;;;;;;;0.63;0.20;;;;;;;20.70;57.62;102025.69;5034653;28;20049;-66
2021/09/16 05:31:12;;;;;;;0.52;0.20;;;;;;;20.67;58.05;102023.28;5034827;28;20524;-66
2021/09/16 05:33:37;;;;;;;1.25;0.20;;;;;;;20.66;59.67;102024.31;5034326;28;20072;-66
2021/09/16 05:36:04;;;;;;;0.68;0.20;;;;;;;20.69;58.89;102018.53;5034673;28;20350;-66
2021/09/16 05:38:29;;;;;;;0.73;0.10;;;;;;;20.63;57.77;102024.59;5034506;28;20025;-66
2021/09/16 05:40:54;;;;;;;0.20;0.20;;;;;;;20.64;57.83;102020.00;5034649;28;20483;-66
2021/09/16 05:43:20;;;;;;;0.47;0.30;;;;;;;20.72;58.17;102011.88;5034274;28;20033;-66
2021/09/16 05:45:45;;;;;;;0.60;0.10;;;;;;;20.72;57.93;102014.59;5034493;28;20026;-66
2021/09/16 05:48:11;;;;;;;0.20;0.17;;;;;;;20.70;59.29;102014.75;5034641;28;20542;-66
2021/09/16 05:50:36;;;;;;;0.80;0.20;;;;;;;20.70;57.68;102003.84;5034615;28;20037;-66
2021/09/16 05:53:02;;;;;;;1.63;0.17;;;;;;;20.71;57.85;102016.47;5034241;28;20029;-66
2021/09/16 05:55:28;;;;;;;0.85;0.32;;;;;;;20.73;57.95;102008.97;5034346;28;20028;-66
2021/09/16 05:57:53;;;;;;;0.52;0.13;;;;;;;20.76;58.56;102006.94;5033392;28;20031;-66
2021/09/16 06:00:20;;;;;;;0.43;0.20;;;;;;;20.76;58.21;102006.94;5031212;28;20036;-66
2021/09/16 06:02:45;;;;;;;0.80;0.10;;;;;;;20.77;58.78;101997.72;5033585;28;20037;-66
2021/09/16 06:05:11;;;;;;;0.50;0.20;;;;;;;20.73;61.30;101999.91;5033694;28;20010;-66
2021/09/16 06:07:36;;;;;;;0.47;0.15;;;;;;;20.77;58.69;102001.31;5033255;28;20033;-66
2021/09/16 06:10:03;;;;;;;0.40;0.20;;;;;;;20.81;59.53;101999.09;5025672;28;20053;-66
2021/09/16 06:12:30;;;;;;;1.05;0.30;;;;;;;20.79;58.07;101995.69;5033290;28;20407;-65
2021/09/16 06:14:56;;;;;;;1.92;0.60;;;;;;;20.82;58.33;101982.53;5033987;28;20104;-66
2021/09/16 06:17:22;;;;;;;0.85;0.10;;;;;;;20.82;58.44;101984.41;5033433;28;20516;-66
2021/09/16 06:19:48;;;;;;;1.20;0.20;;;;;;;20.83;58.74;101995.22;5025600;28;20122;-66
2021/09/16 06:22:14;;;;;;;0.40;0.20;;;;;;;20.86;58.02;101991.31;5033686;28;20022;-66
2021/09/16 06:24:40;;;;;;;0.32;0.10;;;;;;;20.88;58.68;102002.94;5033493;28;20067;-65
2021/09/16 06:27:05;;;;;;;1.80;0.55;;;;;;;20.86;62.61;102002.25;5033038;28;20041;-67
2021/09/16 06:29:30;;;;;;;0.63;0.43;;;;;;;20.84;58.35;102004.28;5034612;28;20368;-66
2021/09/16 06:31:56;;;;;;;0.20;0.20;;;;;;;21.01;57.71;102000.63;5032514;28;20431;-66
2021/09/16 06:34:21;;;;;;;0.47;0.10;;;;;;;20.96;57.53;102002.97;5032932;28;20425;-66
2021/09/16 06:36:46;;;;;;;0.47;0.10;;;;;;;20.91;57.97;101999.88;5033475;28;20013;-67
2021/09/16 06:39:12;;;;;;;0.65;0.20;;;;;;;20.88;58.85;102001.06;5033045;28;20033;-66
2021/09/16 06:41:37;;;;;;;0.55;0.17;;;;;;;20.98;57.65;101998.19;5032781;28;20033;-67
2021/09/16 06:44:02;;;;;;;0.08;0.03;;;;;;;21.02;58.16;102007.81;5031835;28;20040;-67
2021/09/16 06:46:28;;;;;;;0.13;0.13;;;;;;;20.94;57.16;101999.56;5023843;28;20025;-67
2021/09/16 06:48:54;;;;;;;0.73;0.15;;;;;;;21.03;57.63;101998.59;5033357;28;20032;-66
2021/09/16 06:51:19;;;;;;;0.90;0.20;;;;;;;20.97;58.15;101999.22;5030338;28;20033;-67
2021/09/16 06:53:45;;;;;;;0.52;0.20;;;;;;;21.01;57.20;102000.63;5032774;28;20021;-67
2021/09/16 06:56:10;;;;;;;0.80;0.10;;;;;;;21.01;57.29;102000.63;5032479;28;20028;-67
2021/09/16 06:58:35;;;;;;;0.10;0.05;;;;;;;21.04;58.66;102008.50;5032790;28;20030;-67
2021/09/16 07:01:00;;;;;;;0.60;0.13;;;;;;;21.00;58.53;102004.41;5032967;28;20349;-67
2021/09/16 07:03:26;;;;;;;0.60;0.17;;;;;;;21.00;58.16;102007.97;5031823;28;20041;-67
2021/09/16 07:05:51;;;;;;;0.40;0.20;;;;;;;21.01;58.09;102006.09;5032699;28;20021;-67
2021/09/16 07:08:16;;;;;;;0.75;0.20;;;;;;;21.02;57.70;102018.75;5032820;28;20678;-66
2021/09/16 07:10:42;;;;;;;0.93;0.17;;;;;;;21.04;57.92;102013.97;5033082;28;20478;-67
2021/09/16 07:13:08;;;;;;;0.57;0.20;;;;;;;21.14;57.65;102003.78;5032433;28;20502;-67
2021/09/16 07:15:33;;;;;;;0.32;0.20;;;;;;;21.12;56.58;102005.81;5015032;28;20032;-67
2021/09/16 07:17:59;;;;;;;0.15;0.10;;;;;;;21.11;57.36;102005.97;5031439;28;20036;-67
2021/09/16 07:20:25;;;;;;;1.42;0.20;;;;;;;21.13;57.57;102002.06;5024913;28;20421;-66
2021/09/16 07:22:50;;;;;;;0.68;0.10;;;;;;;21.01;58.19;102012.44;5017446;28;20026;-67
2021/09/16 07:25:16;;;;;;;0.57;0.20;;;;;;;21.07;57.43;101999.97;5009883;28;20065;-67
2021/09/16 07:27:41;;;;;;;0.40;0.30;;;;;;;21.07;57.09;102010.91;5032009;28;20033;-67
2021/09/16 07:30:07;;;;;;;1.17;0.20;;;;;;;21.02;57.74;102007.81;5032462;28;20052;-67
2021/09/16 07:32:32;;;;;;;0.25;0.00;;;;;;;21.02;56.99;102008.69;5032910;28;20108;-67
2021/09/16 07:34:59;;;;;;;0.68;0.20;;;;;;;21.07;57.29;102010.91;5078312;22;20135;-67
2021/09/16 07:37:24;;;;;;;0.82;0.10;;;;;;;21.02;57.99;102018.75;5057277;28;20040;-67
2021/09/16 07:39:50;;;;;;;1.27;0.20;;;;;;;20.99;58.26;102008.97;5068201;28;20421;-67
2021/09/16 07:42:15;;;;;;;1.05;0.22;;;;;;;21.03;56.94;102009.53;5072806;28;20531;-67
2021/09/16 07:44:40;;;;;;;0.20;0.20;;;;;;;21.04;58.13;102013.97;5072706;28;20024;-67
2021/09/16 07:47:06;;;;;;;1.15;0.20;;;;;;;21.07;58.15;102021.84;5072278;28;20077;-67
2021/09/16 07:49:31;;;;;;;1.25;0.15;;;;;;;21.10;57.95;102015.22;5073424;28;20111;-67
2021/09/16 07:51:56;;;;;;;0.63;0.30;;;;;;;21.09;58.89;102019.81;5072341;28;20031;-67
2021/09/16 07:54:22;;;;;;;0.50;0.40;;;;;;;21.05;57.56;102009.38;5072863;28;20021;-66
2021/09/16 07:56:48;;;;;;;0.32;0.22;;;;;;;21.02;58.83;102007.81;5071819;28;20035;-67
2021/09/16 07:59:14;;;;;;;0.20;0.10;;;;;;;21.05;58.57;102006.63;5053710;28;20025;-67
2021/09/16 08:01:39;;;;;;;0.80;0.30;;;;;;;21.10;57.62;101999.66;5063800;28;20032;-67
2021/09/16 08:04:04;;;;;;;0.38;0.20;;;;;;;21.04;58.33;102008.50;5052254;28;20032;-67
2021/09/16 08:06:30;;;;;;;0.57;0.20;;;;;;;21.09;58.04;102002.56;5052511;28;20029;-67
2021/09/16 08:08:56;;;;;;;0.10;0.10;;;;;;;21.05;57.90;102001.16;5053861;28;20063;-67
2021/09/16 08:11:22;;;;;;;0.30;0.15;;;;;;;21.08;58.02;102000.84;5064127;28;20025;-67
2021/09/16 08:13:47;;;;;;;0.15;0.10;;;;;;;21.06;57.72;102009.22;5071449;28;20066;-67
2021/09/16 08:16:13;;;;;;;0.85;0.20;;;;;;;21.09;59.24;101995.22;5066104;28;20055;-67
2021/09/16 08:18:38;;;;;;;1.23;0.30;;;;;;;21.02;57.07;102003.22;5062622;28;20037;-68
2021/09/16 08:21:03;;;;;;;0.77;0.10;;;;;;;21.01;58.04;101990.56;5059877;28;20394;-67
2021/09/16 08:23:29;;;;;;;0.60;0.30;;;;;;;21.03;57.75;102004.06;5076026;28;20070;-67
2021/09/16 08:25:55;;;;;;;0.60;0.30;;;;;;;21.03;57.75;101993.13;5075883;28;20064;-67
2021/09/16 08:28:20;;;;;;;1.58;0.10;;;;;;;21.13;58.11;101991.13;5075964;28;20028;-64
2021/09/16 08:30:46;;;;;;;0.68;0.25;;;;;;;21.10;58.42;101994.19;5077220;28;20051;-67
2021/09/16 08:33:13;;;;;;;0.68;0.20;;;;;;;21.11;57.61;101995.91;5075439;28;20040;-68
2021/09/16 08:35:39;;;;;;;1.15;0.20;;;;;;;21.09;58.53;101994.34;5076017;28;20016;-67
2021/09/16 08:38:06;;;;;;;0.52;0.10;;;;;;;21.11;57.90;101989.56;5064250;28;20033;-67
2021/09/16 08:40:31;;;;;;;0.30;0.25;;;;;;;21.06;58.38;101992.81;5055459;28;20040;-67
2021/09/16 08:42:56;;;;;;;0.68;0.20;;;;;;;21.09;58.39;101995.22;5060133;28;20024;-67
2021/09/16 08:45:22;;;;;;;0.63;0.20;;;;;;;21.04;58.45;101983.91;5071750;28;20071;-67
2021/09/16 08:47:50;;;;;;;1.05;0.20;;;;;;;21.06;58.55;101981.88;5073741;28;20051;-67
2021/09/16 08:50:17;;;;;;;0.68;0.28;;;;;;;21.12;58.76;101983.94;5065332;28;20037;-64
2021/09/16 08:52:45;;;;;;;0.17;0.17;;;;;;;21.15;57.72;101982.75;5056727;28;20037;-67
2021/09/16 08:55:14;;;;;;;0.50;0.10;;;;;;;21.16;57.69;101987.19;5056373;28;20056;-67
2021/09/16 08:57:42;;;;;;;0.82;0.30;;;;;;;21.17;58.09;101989.81;5070432;28;20082;-67
2021/09/16 09:00:14;;;;;;;0.20;0.00;;;;;;;21.14;58.01;101994.72;5074367;28;20028;-67
2021/09/16 09:02:40;;;;;;;0.68;0.57;;;;;;;21.17;58.25;101997.16;5074182;28;20020;-67
2021/09/16 09:05:08;;;;;;;0.13;0.13;;;;;;;21.11;57.79;101990.44;5056676;28;20528;-67
2021/09/16 09:07:38;;;;;;;0.47;0.17;;;;;;;21.14;57.54;101983.78;5074042;28;20021;-68
2021/09/16 09:10:04;;;;;;;0.98;0.22;;;;;;;21.12;57.84;101981.19;5059330;28;20039;-67
2021/09/16 09:12:37;;;;;;;0.40;0.20;;;;;;;21.08;59.29;101977.09;5068603;28;20033;-66
2021/09/16 09:15:06;;;;;;;0.75;0.30;;;;;;;21.13;58.22;101971.97;5071361;28;20363;-67
2021/09/16 09:17:33;;;;;;;0.43;0.20;;;;;;;21.10;58.18;101972.31;5056465;28;20032;-67
2021/09/16 09:20:06;;;;;;;0.47;0.47;;;;;;;21.11;57.42;101973.16;5065457;28;20027;-67
2021/09/16 09:22:39;;;;;;;0.88;0.38;;;;;;;21.10;57.96;101964.09;5074567;28;20419;-66
2021/09/16 09:25:13;;;;;;;0.55;0.28;;;;;;;21.01;57.91;101974.16;5074753;28;20055;-68
2021/09/16 09:27:50;;;;;;;0.17;0.15;;;;;;;21.06;58.84;101970.06;5074761;28;20035;-67
2021/09/16 09:30:19;;;;;;;0.10;0.10;;;;;;;21.11;58.50;101962.22;5074838;28;20113;-67
2021/09/16 09:32:53;;;;;;;0.55;0.20;;;;;;;21.11;57.04;101984.97;5074318;28;20414;-67
2021/09/16 09:35:37;;;;;;;1.45;0.30;;;;;;;21.12;57.77;101970.25;5037496;28;20634;-67
2021/09/16 09:38:12;;;;;;;0.30;0.20;;;;;;;21.12;58.22;101973.00;5034098;28;20037;-68
2021/09/16 09:40:39;;;;;;;0.57;0.20;;;;;;;21.16;58.28;101966.19;5052279;28;20029;-66
2021/09/16 09:43:32;;;;;;;0.52;0.32;;;;;;;21.08;58.22;101971.63;5044283;28;20033;-67
2021/09/16 09:46:00;;;;;;;0.30;0.03;;;;;;;21.13;58.19;101971.97;5034457;28;20037;-67
2021/09/16 09:48:26;;;;;;;0.82;0.25;;;;;;;21.15;57.08;101975.41;5054442;28;20031;-66
2021/09/16 09:50:52;;;;;;;0.17;0.17;;;;;;;21.15;57.98;101966.34;5036641;28;20025;-67
2021/09/16 09:53:18;;;;;;;0.20;0.10;;;;;;;21.11;58.37;101968.56;5036848;28;20413;-67
2021/09/16 09:55:43;;;;;;;1.17;0.28;;;;;;;21.11;58.66;101968.56;5054527;28;20021;-64
2021/09/16 09:58:09;;;;;;;1.00;0.17;;;;;;;21.12;58.51;101967.53;5044635;28;20025;-67
2021/09/16 10:00:35;;;;;;;1.50;0.30;;;;;;;21.08;57.99;101957.09;5045892;28;20032;-67
2021/09/16 10:03:01;;;;;;;0.65;0.40;;;;;;;21.04;58.25;101962.03;5041818;28;20032;-67
2021/09/16 10:05:32;;;;;;;0.40;0.40;;;;;;;21.13;58.69;101963.78;5016286;28;20663;-67
2021/09/16 10:08:06;;;;;;;0.52;0.10;;;;;;;21.14;58.10;101946.34;5033381;28;20087;-67
2021/09/16 10:10:38;;;;;;;0.55;0.20;;;;;;;21.16;58.52;101954.38;5033205;28;20037;-67
2021/09/16 10:13:04;;;;;;;0.20;0.10;;;;;;;21.09;57.59;101956.91;5038072;28;20052;-67
2021/09/16 10:15:30;;;;;;;0.90;0.20;;;;;;;21.12;58.24;101953.84;5053429;28;20460;-67
2021/09/16 10:17:56;;;;;;;0.75;0.20;;;;;;;21.13;58.14;101950.09;5053156;28;20071;-67
2021/09/16 10:20:24;;;;;;;0.15;0.08;;;;;;;21.12;58.33;101953.84;5053897;28;20059;-67
2021/09/16 10:22:52;;;;;;;0.30;0.10;;;;;;;21.08;57.58;101952.47;5035804;28;20510;-67
2021/09/16 10:25:21;;;;;;;0.90;0.15;;;;;;;21.03;59.06;101949.38;5033714;28;20040;-67
2021/09/16 10:27:56;;;;;;;0.38;0.10;;;;;;;21.05;58.75;101952.81;5033724;28;20029;-67
2021/09/16 10:30:24;;;;;;;0.28;0.00;;;;;;;21.08;57.96;101952.47;5033859;28;20033;-67
2021/09/16 10:33:17;;;;;;;1.25;0.13;;;;;;;21.05;58.23;101951.94;5032903;28;20028;-67
2021/09/16 10:35:57;;;;;;;0.57;0.30;;;;;;;21.08;58.72;101957.09;5016181;28;20037;-67
2021/09/16 10:38:24;;;;;;;0.43;0.20;;;;;;;21.14;58.92;101961.91;5033628;28;20029;-67
2021/09/16 10:41:11;;;;;;;0.32;0.10;;;;;;;21.15;57.55;101969.94;5035050;28;20059;-67
2021/09/16 10:43:37;;;;;;;0.45;0.20;;;;;;;21.09;59.01;101973.34;5050294;28;20071;-67
2021/09/16 10:46:39;;;;;;;0.03;0.03;;;;;;;21.07;57.88;101961.69;5038272;28;20484;-67
2021/09/16 10:49:22;;;;;;;1.42;0.10;;;;;;;21.13;59.43;101954.72;4972227;28;20042;-67
2021/09/16 10:51:50;;;;;;;0.80;0.30;;;;;;;21.06;58.53;101965.47;4972226;28;20510;-67
2021/09/16 10:54:24;;;;;;;0.35;0.13;;;;;;;21.08;58.35;101957.94;4972265;28;20050;-68
2021/09/16 10:57:10;;;;;;;1.27;0.35;;;;;;;21.05;58.43;101963.75;4972481;28;20029;-67
2021/09/16 10:59:47;;;;;;;0.43;0.03;;;;;;;21.07;59.44;101953.50;4972302;28;20035;-67
2021/09/16 11:02:15;;;;;;;0.73;0.13;;;;;;;21.13;57.96;101950.09;4973114;28;20110;-66
2021/09/16 11:04:55;;;;;;;1.00;0.20;;;;;;;21.12;58.36;101947.53;4972482;28;20081;-67
2021/09/16 11:07:37;;;;;;;0.35;0.10;;;;;;;21.09;59.52;101942.41;4972271;28;20073;-67
2021/09/16 11:10:14;;;;;;;1.02;0.32;;;;;;;21.05;58.69;101938.28;4956051;28;20051;-66
2021/09/16 11:13:09;;;;;;;0.50;0.10;;;;;;;21.07;58.56;101937.09;4972122;28;20113;-67
2021/09/16 11:15:36;;;;;;;;;;;;;;;21.09;57.54;101931.47;4945643;29;20122;-67
2021/09/16 11:18:03;;;;;;;0.05;0.05;;;;;;;21.04;58.80;101926.50;4952447;29;19921;-66
2021/09/16 11:20:29;;;;;;;0.68;0.20;;;;;;;21.14;58.50;101926.34;4952137;29;20486;-66
2021/09/16 11:22:54;;;;;;;0.52;0.20;;;;;;;21.16;57.63;101927.91;4951745;29;20103;-66